Time;durP1;ratioP1;P1;durP2;ratioP2;P2;SDS_P1;SDS_P2;PMS_P1;PMS_P2;Temp;Humidity;BMP_temperature;BMP_pressure;BME280_temperature;BME280_humidity;BME280_pressure;Samples;Min_cycle;Max_cycle;Signal;HPM_P1;HPM_P2
2022/05/30 00:02:12;;;;;;;5.03;3.58;;;8.30;89.60;;;;;;5063067;28;20021;-85
2022/05/30 00:04:38;;;;;;;4.72;3.20;;;8.30;89.50;;;;;;5062093;28;20023;-87
2022/05/30 00:07:06;;;;;;;3.80;3.30;;;8.30;89.40;;;;;;5061937;28;20031;-85
2022/05/30 00:09:33;;;;;;;4.20;3.10;;;8.30;89.50;;;;;;5062692;28;20050;-87
2022/05/30 00:11:59;;;;;;;5.60;3.13;;;8.30;89.50;;;;;;5068999;28;20078;-83
2022/05/30 00:14:25;;;;;;;7.20;3.67;;;8.30;89.40;;;;;;5060499;28;20025;-86
2022/05/30 00:16:51;;;;;;;5.50;2.92;;;8.30;89.30;;;;;;5080918;28;20021;-87
2022/05/30 00:19:17;;;;;;;6.43;2.50;;;8.30;89.30;;;;;;5085377;28;20470;-87
2022/05/30 00:21:44;;;;;;;3.53;2.10;;;8.20;89.20;;;;;;5076981;28;20020;-85
2022/05/30 00:24:10;;;;;;;4.43;2.00;;;8.20;89.30;;;;;;5100889;28;20074;-87
2022/05/30 00:26:36;;;;;;;4.47;2.45;;;8.20;89.40;;;;;;5062844;28;20111;-87
2022/05/30 00:29:04;;;;;;;2.30;2.10;;;8.20;89.50;;;;;;5062159;28;20510;-84
2022/05/30 00:31:30;;;;;;;2.90;1.90;;;8.20;89.40;;;;;;5075877;28;20098;-85
2022/05/30 00:33:56;;;;;;;2.88;1.90;;;8.20;89.30;;;;;;5082515;28;20020;-85
2022/05/30 00:36:21;;;;;;;2.88;1.67;;;8.10;89.20;;;;;;5100376;28;20016;-84
2022/05/30 00:38:47;;;;;;;1.80;1.70;;;8.10;89.10;;;;;;5081563;28;20030;-86
2022/05/30 00:41:13;;;;;;;1.92;1.60;;;8.00;89.10;;;;;;5078457;28;20109;-84
2022/05/30 00:43:41;;;;;;;1.98;1.63;;;8.00;89.20;;;;;;5078000;28;20021;-87
2022/05/30 00:46:16;;;;;;;3.20;1.85;;;8.00;89.40;;;;;;5066626;28;20028;-85
2022/05/30 00:48:47;;;;;;;8.60;1.60;;;8.00;89.40;;;;;;5061852;28;20032;-87
2022/05/30 00:51:17;;;;;;;2.25;1.45;;;7.90;89.30;;;;;;5063035;28;20024;-84
2022/05/30 00:53:46;;;;;;;5.93;1.80;;;7.90;89.40;;;;;;5062876;28;20023;-85
2022/05/30 00:56:13;;;;;;;4.35;1.80;;;7.90;89.70;;;;;;5062728;28;20021;-86
2022/05/30 00:58:44;;;;;;;2.17;1.70;;;7.90;89.60;;;;;;5063159;28;20020;-87
2022/05/30 01:01:10;;;;;;;4.45;1.90;;;7.80;89.50;;;;;;5062938;28;20394;-87
2022/05/30 01:06:33;;;;;;;3.75;1.95;;;7.80;89.50;;;;;;5094866;28;20047;-86
2022/05/30 01:09:11;;;;;;;1.90;1.67;;;7.80;89.40;;;;;;5078169;28;20142;-87
2022/05/30 01:12:10;;;;;;;2.00;1.80;;;7.70;89.60;;;;;;5079051;28;20081;-85
2022/05/30 01:14:42;;;;;;;3.03;1.77;;;7.70;89.50;;;;;;5057637;28;20032;-83
2022/05/30 01:17:13;;;;;;;2.00;1.80;;;7.70;89.40;;;;;;5061936;28;20048;-85
2022/05/30 01:19:59;;;;;;;3.90;1.75;;;7.60;89.50;;;;;;5079303;28;20024;-85
2022/05/30 01:22:57;;;;;;;4.25;1.65;;;7.60;89.60;;;;;;5078838;28;20029;-84
2022/05/30 01:25:54;;;;;;;3.58;1.60;;;7.60;89.50;;;;;;5064745;28;20028;-85
2022/05/30 01:28:31;;;;;;;2.80;1.70;;;7.50;89.50;;;;;;5081407;28;20019;-86
2022/05/30 01:30:56;;;;;;;4.22;1.60;;;7.50;89.50;;;;;;5080951;28;20028;-85
2022/05/30 01:33:22;;;;;;;3.13;1.60;;;7.40;89.50;;;;;;5081322;28;20046;-86
2022/05/30 01:35:47;;;;;;;2.03;1.70;;;7.50;89.80;;;;;;5081063;28;20055;-86
2022/05/30 01:38:13;;;;;;;3.08;1.73;;;7.40;89.80;;;;;;5078949;28;20024;-85
2022/05/30 01:40:39;;;;;;;3.38;1.80;;;7.40;89.80;;;;;;5073063;28;20024;-83
2022/05/30 01:43:05;;;;;;;4.57;2.03;;;7.40;89.90;;;;;;5080449;28;20035;-84
2022/05/30 01:45:30;;;;;;;3.42;1.77;;;7.30;89.80;;;;;;5080099;28;20057;-83
2022/05/30 01:47:56;;;;;;;2.70;1.92;;;7.30;89.80;;;;;;5081420;28;20036;-84
2022/05/30 01:50:24;;;;;;;2.78;1.60;;;7.30;89.80;;;;;;5081477;28;20028;-85
2022/05/30 01:52:50;;;;;;;2.70;1.95;;;7.30;89.80;;;;;;5081231;28;20024;-85
2022/05/30 01:55:16;;;;;;;1.60;1.50;;;7.30;89.90;;;;;;5069661;28;20055;-84
2022/05/30 01:57:41;;;;;;;1.80;1.50;;;7.30;90.00;;;;;;5060807;28;20025;-84
2022/05/30 02:00:10;;;;;;;2.92;1.65;;;7.30;90.00;;;;;;5060181;28;20024;-85
2022/05/30 02:02:36;;;;;;;2.70;1.95;;;7.30;89.90;;;;;;5060766;28;20532;-84
2022/05/30 02:05:03;;;;;;;2.83;2.00;;;7.30;89.70;;;;;;5060186;28;20391;-85
2022/05/30 02:07:29;;;;;;;3.38;1.83;;;7.20;89.70;;;;;;5079591;28;20386;-83
2022/05/30 02:09:54;;;;;;;2.50;1.70;;;7.20;89.70;;;;;;5096811;28;20020;-84
2022/05/30 02:12:20;;;;;;;2.97;1.95;;;7.20;89.90;;;;;;5076096;28;20101;-85
2022/05/30 02:14:46;;;;;;;3.00;1.90;;;7.10;90.00;;;;;;5076212;28;20081;-83
2022/05/30 02:17:12;;;;;;;2.45;1.50;;;7.20;90.00;;;;;;5076779;28;20390;-85
2022/05/30 02:19:44;;;;;;;2.80;1.65;;;7.20;90.00;;;;;;5077775;28;20025;-83
2022/05/30 02:22:18;;;;;;;3.03;2.10;;;7.10;89.90;;;;;;5078471;28;20024;-85
2022/05/30 02:24:44;;;;;;;2.13;1.58;;;7.10;89.70;;;;;;5076166;28;20020;-84
2022/05/30 02:27:12;;;;;;;5.50;1.92;;;7.10;89.60;;;;;;5076928;28;20021;-84
2022/05/30 02:29:38;;;;;;;4.57;1.70;;;7.00;89.60;;;;;;5076531;28;20036;-85
2022/05/30 02:32:04;;;;;;;3.22;1.88;;;7.00;89.70;;;;;;5076134;28;20032;-83
2022/05/30 02:37:14;;;;;;;3.50;1.75;;;6.90;90.00;;;;;;5077280;28;20047;-85
2022/05/30 02:39:40;;;;;;;3.15;1.70;;;6.90;90.00;;;;;;5070679;28;20028;-84
2022/05/30 02:42:07;;;;;;;1.73;1.60;;;6.80;90.00;;;;;;5098489;28;20032;-83
2022/05/30 02:44:33;;;;;;;1.85;1.55;;;6.80;90.00;;;;;;5080155;28;20170;-82
2022/05/30 02:46:59;;;;;;;4.80;1.60;;;6.80;90.10;;;;;;5080549;28;20495;-84
2022/05/30 02:49:27;;;;;;;3.55;1.90;;;6.80;90.10;;;;;;5079520;28;20032;-84
2022/05/30 02:51:54;;;;;;;2.83;1.75;;;6.70;90.10;;;;;;5060332;28;20048;-83
2022/05/30 02:54:20;;;;;;;2.67;1.65;;;6.70;90.20;;;;;;5061054;28;20372;-85
2022/05/30 02:56:51;;;;;;;2.28;1.38;;;6.70;90.20;;;;;;5080250;28;20078;-83
2022/05/30 02:59:17;;;;;;;2.10;1.67;;;6.70;90.30;;;;;;5080536;28;20035;-85
2022/05/30 03:01:42;;;;;;;2.97;1.67;;;6.70;90.20;;;;;;5080080;28;20119;-83
2022/05/30 03:04:08;;;;;;;3.28;1.65;;;6.60;90.20;;;;;;5080000;28;20028;-84
2022/05/30 03:06:34;;;;;;;1.60;1.50;;;6.60;90.20;;;;;;5082646;28;20031;-83
2022/05/30 03:08:59;;;;;;;4.43;1.67;;;6.60;90.20;;;;;;5079932;28;20043;-85
2022/05/30 03:11:26;;;;;;;2.25;1.90;;;6.60;90.20;;;;;;5079462;28;20564;-85
2022/05/30 03:13:52;;;;;;;5.10;1.70;;;6.60;90.30;;;;;;5084250;28;20083;-85
2022/05/30 03:16:18;;;;;;;1.60;1.50;;;6.60;90.30;;;;;;5083212;28;20058;-85
2022/05/30 03:18:43;;;;;;;5.80;1.95;;;6.60;90.30;;;;;;5101972;28;20024;-83
2022/05/30 03:21:10;;;;;;;1.75;1.65;;;6.60;90.30;;;;;;5101478;28;20024;-85
2022/05/30 03:23:36;;;;;;;1.77;1.67;;;6.60;90.30;;;;;;5082940;28;20028;-84
2022/05/30 03:26:02;;;;;;;2.03;1.52;;;6.60;90.30;;;;;;5082883;28;20020;-85
2022/05/30 03:28:28;;;;;;;5.32;1.77;;;6.60;90.30;;;;;;5082885;28;20028;-86
2022/05/30 03:30:53;;;;;;;3.85;2.08;;;6.60;90.30;;;;;;5080318;28;20028;-85
2022/05/30 03:33:19;;;;;;;3.85;1.80;;;6.60;90.30;;;;;;5074250;28;20048;-84
2022/05/30 03:35:45;;;;;;;6.03;1.70;;;6.60;90.20;;;;;;5082924;28;20544;-85
2022/05/30 03:38:10;;;;;;;6.53;1.73;;;6.60;90.30;;;;;;5082027;28;20024;-86
2022/05/30 03:40:39;;;;;;;2.15;1.75;;;6.50;90.20;;;;;;5083490;28;20088;-85
2022/05/30 03:43:10;;;;;;;2.05;1.65;;;6.50;90.30;;;;;;5082729;28;20062;-86
2022/05/30 03:45:42;;;;;;;2.78;1.58;;;6.50;90.30;;;;;;5083211;28;20031;-84
2022/05/30 03:48:10;;;;;;;6.13;1.92;;;6.50;90.30;;;;;;5082687;28;20038;-83
2022/05/30 03:50:38;;;;;;;4.15;2.00;;;6.50;90.50;;;;;;5079688;28;20047;-83
2022/05/30 03:53:07;;;;;;;7.15;2.20;;;6.50;90.30;;;;;;5079249;28;20025;-85
2022/05/30 03:55:35;;;;;;;51.40;4.05;;;6.40;90.30;;;;;;5079499;28;20051;-86
2022/05/30 03:58:03;;;;;;;28.13;4.53;;;6.30;90.30;;;;;;5081576;28;20056;-84
2022/05/30 04:00:30;;;;;;;38.30;5.10;;;6.20;90.30;;;;;;5079336;28;20035;-85
2022/05/30 04:02:55;;;;;;;21.20;4.85;;;6.10;90.60;;;;;;5079615;28;20024;-86
2022/05/30 04:05:21;;;;;;;82.68;6.40;;;6.10;90.80;;;;;;5076536;28;20510;-85
2022/05/30 04:07:47;;;;;;;125.70;7.03;;;6.20;90.90;;;;;;5064541;28;20032;-85
2022/05/30 04:10:13;;;;;;;210.07;7.70;;;6.20;91.00;;;;;;5082813;28;20028;-84
2022/05/30 04:12:38;;;;;;;67.90;6.45;;;6.10;90.90;;;;;;5080378;28;20066;-83
2022/05/30 04:15:06;;;;;;;94.57;6.43;;;6.00;91.00;;;;;;5081741;28;20024;-84
2022/05/30 04:17:34;;;;;;;75.70;6.63;;;6.00;91.20;;;;;;5097241;28;20118;-84
2022/05/30 04:20:00;;;;;;;102.25;6.43;;;6.00;91.30;;;;;;5080088;28;20023;-87
2022/05/30 04:22:26;;;;;;;145.32;7.10;;;6.00;91.30;;;;;;5082945;28;20087;-87
2022/05/30 04:24:52;;;;;;;65.00;6.30;;;6.00;91.30;;;;;;5082948;28;20728;-87
2022/05/30 04:27:18;;;;;;;76.93;6.38;;;5.90;91.30;;;;;;5082154;28;20157;-87
2022/05/30 04:29:43;;;;;;;35.28;5.88;;;6.00;91.50;;;;;;5082402;28;20062;-85
2022/05/30 04:32:09;;;;;;;6.35;5.45;;;6.00;91.70;;;;;;5070152;28;20066;-86
2022/05/30 04:34:36;;;;;;;13.68;6.15;;;6.10;91.90;;;;;;5079179;28;20433;-84
2022/05/30 04:37:03;;;;;;;17.20;5.15;;;6.20;92.00;;;;;;5061131;28;20021;-84
2022/05/30 04:39:29;;;;;;;6.80;5.35;;;6.30;92.10;;;;;;5070524;28;20104;-85
2022/05/30 04:41:54;;;;;;;6.38;5.20;;;6.50;92.10;;;;;;5081384;28;20070;-85
2022/05/30 04:44:20;;;;;;;8.60;6.22;;;6.60;92.10;;;;;;5081951;28;20043;-85
2022/05/30 04:46:55;;;;;;;7.45;5.07;;;6.70;92.10;;;;;;5076331;28;20131;-83
2022/05/30 04:49:21;;;;;;;8.02;5.53;;;6.80;92.10;;;;;;5071936;28;20478;-85
2022/05/30 04:51:48;;;;;;;8.52;6.15;;;7.00;92.00;;;;;;5096321;28;20051;-85
2022/05/30 04:54:13;;;;;;;8.38;5.72;;;7.20;92.00;;;;;;5117814;28;20034;-85
2022/05/30 04:56:39;;;;;;;8.15;6.05;;;7.30;91.90;;;;;;5082872;28;20115;-85
2022/05/30 04:59:04;;;;;;;7.35;5.50;;;7.40;91.90;;;;;;5109337;28;20027;-85
2022/05/30 05:01:30;;;;;;;5.43;4.78;;;7.50;91.90;;;;;;5088718;28;20024;-85
2022/05/30 05:03:56;;;;;;;6.32;5.10;;;7.50;91.80;;;;;;5107729;28;20012;-85
2022/05/30 05:06:22;;;;;;;6.07;4.80;;;7.50;91.70;;;;;;5091742;28;20020;-85
2022/05/30 05:08:51;;;;;;;8.02;5.10;;;7.60;91.90;;;;;;5075828;28;20501;-85
2022/05/30 05:11:21;;;;;;;10.52;5.88;;;7.70;91.90;;;;;;5088132;28;20032;-85
2022/05/30 05:13:47;;;;;;;7.78;5.45;;;7.70;91.80;;;;;;5088840;28;20016;-84
2022/05/30 05:16:14;;;;;;;9.00;6.20;;;7.70;92.00;;;;;;5078969;28;20106;-85
2022/05/30 05:18:40;;;;;;;6.43;5.53;;;7.70;91.80;;;;;;5080211;28;20051;-84
2022/05/30 05:21:06;;;;;;;7.38;5.45;;;7.70;91.80;;;;;;5070447;28;20043;-85
2022/05/30 05:23:32;;;;;;;6.43;5.32;;;7.80;91.90;;;;;;5082790;28;20032;-85
2022/05/30 05:26:01;;;;;;;8.15;5.55;;;7.80;92.00;;;;;;5078133;28;20602;-85
2022/05/30 05:28:27;;;;;;;6.65;5.40;;;7.90;92.10;;;;;;5078902;28;20028;-84
2022/05/30 05:30:53;;;;;;;8.13;5.47;;;8.00;92.30;;;;;;5079830;28;20035;-83
2022/05/30 05:33:18;;;;;;;7.78;5.75;;;8.10;92.40;;;;;;5078261;28;20028;-83
2022/05/30 05:35:45;;;;;;;8.43;5.93;;;8.20;92.40;;;;;;5096388;28;20509;-83
2022/05/30 05:38:12;;;;;;;7.03;5.70;;;8.40;92.40;;;;;;5077683;28;20555;-84
2022/05/30 05:40:42;;;;;;;6.97;5.65;;;8.50;92.40;;;;;;5085899;28;20027;-82
2022/05/30 05:43:09;;;;;;;8.07;5.50;;;8.50;92.20;;;;;;5070585;28;20032;-82
2022/05/30 05:45:39;;;;;;;6.68;5.95;;;8.50;92.10;;;;;;5071672;28;20028;-85
2022/05/30 05:48:06;;;;;;;5.80;5.20;;;8.40;92.20;;;;;;5065397;28;20033;-83
2022/05/30 05:50:32;;;;;;;5.97;5.10;;;8.40;92.40;;;;;;5076354;28;20079;-83
2022/05/30 05:52:57;;;;;;;8.80;5.70;;;8.30;92.50;;;;;;5081046;28;20028;-83
2022/05/30 05:55:23;;;;;;;10.10;5.90;;;8.30;92.70;;;;;;5089754;28;20024;-85
2022/05/30 05:57:49;;;;;;;6.03;5.35;;;8.40;93.00;;;;;;5081730;28;20477;-83
2022/05/30 06:00:16;;;;;;;7.40;5.22;;;8.50;93.20;;;;;;5075948;28;20040;-85
2022/05/30 06:02:42;;;;;;;8.48;5.25;;;8.60;93.30;;;;;;5078506;28;20024;-85
2022/05/30 06:05:09;;;;;;;7.45;4.97;;;8.70;93.40;;;;;;5077190;28;20031;-84
2022/05/30 06:07:39;;;;;;;9.50;5.30;;;8.80;93.50;;;;;;5094992;28;20024;-84
2022/05/30 06:10:07;;;;;;;9.10;5.25;;;8.90;93.50;;;;;;5094346;28;20024;-84
2022/05/30 06:12:38;;;;;;;9.73;5.20;;;9.00;93.60;;;;;;5083636;28;20050;-85
2022/05/30 06:15:08;;;;;;;4.93;4.40;;;9.00;93.70;;;;;;5078013;28;20035;-86
2022/05/30 06:17:34;;;;;;;7.22;4.45;;;9.10;93.80;;;;;;5071790;28;20027;-85
2022/05/30 06:20:00;;;;;;;6.57;4.38;;;9.20;93.80;;;;;;5075186;28;20012;-84
2022/05/30 06:22:26;;;;;;;6.18;4.60;;;9.30;93.90;;;;;;5067328;28;20024;-85
2022/05/30 06:24:51;;;;;;;5.45;4.38;;;9.40;93.90;;;;;;5063348;28;20111;-85
2022/05/30 06:27:19;;;;;;;6.90;4.43;;;9.40;94.10;;;;;;5069982;28;20115;-84
2022/05/30 06:29:45;;;;;;;7.50;4.40;;;9.50;94.20;;;;;;5076776;28;20474;-84
2022/05/30 06:32:11;;;;;;;7.65;3.95;;;9.50;94.20;;;;;;5076205;28;20035;-83
2022/05/30 06:34:37;;;;;;;11.13;3.75;;;9.60;94.30;;;;;;5093682;28;20039;-83
2022/05/30 06:37:03;;;;;;;4.55;3.92;;;9.70;94.40;;;;;;5089688;28;20039;-83
2022/05/30 06:39:28;;;;;;;6.72;3.97;;;9.80;94.40;;;;;;5071690;28;20028;-83
2022/05/30 06:41:54;;;;;;;4.85;3.88;;;9.90;94.40;;;;;;5075812;28;20077;-83
2022/05/30 06:44:20;;;;;;;7.65;3.90;;;10.00;94.50;;;;;;5093639;28;20074;-84
2022/05/30 06:46:45;;;;;;;6.93;3.92;;;10.10;94.50;;;;;;5076064;28;20597;-82
2022/05/30 06:49:12;;;;;;;4.55;4.00;;;10.20;94.50;;;;;;5075348;28;20169;-82
2022/05/30 06:51:38;;;;;;;4.50;3.80;;;10.30;94.50;;;;;;5075566;28;20558;-83
2022/05/30 06:54:05;;;;;;;7.00;3.80;;;10.40;94.60;;;;;;5075465;28;20047;-83
2022/05/30 06:56:34;;;;;;;4.60;3.65;;;10.60;94.60;;;;;;5066812;28;20024;-82
2022/05/30 06:59:00;;;;;;;5.70;3.20;;;10.70;94.60;;;;;;5076361;28;20020;-82
2022/05/30 07:01:32;;;;;;;5.20;2.80;;;10.90;94.50;;;;;;5076236;28;20474;-83
2022/05/30 07:03:58;;;;;;;5.03;3.15;;;11.00;94.50;;;;;;5094096;28;20020;-82
2022/05/30 07:06:31;;;;;;;5.47;2.90;;;11.20;94.40;;;;;;5075901;28;20122;-84
2022/05/30 07:08:56;;;;;;;4.63;3.00;;;11.40;94.30;;;;;;5055984;28;20048;-83
2022/05/30 07:11:23;;;;;;;3.70;2.75;;;11.80;94.20;;;;;;5056188;28;20060;-83
2022/05/30 07:13:49;;;;;;;3.22;2.72;;;12.10;94.00;;;;;;5060982;28;20016;-83
2022/05/30 07:16:15;;;;;;;3.97;2.53;;;12.40;93.60;;;;;;5065152;28;20048;-83
2022/05/30 07:18:43;;;;;;;4.55;3.00;;;12.70;93.30;;;;;;5057058;28;20020;-83
2022/05/30 07:21:10;;;;;;;6.85;2.53;;;12.90;93.10;;;;;;5056922;28;20459;-83
2022/05/30 07:23:37;;;;;;;5.70;2.50;;;13.10;92.70;;;;;;5056898;28;20082;-83
2022/05/30 07:26:06;;;;;;;5.07;2.33;;;13.40;92.60;;;;;;5074704;28;20029;-83
2022/05/30 07:28:32;;;;;;;5.50;2.47;;;13.60;92.30;;;;;;5060007;28;20413;-83
2022/05/30 07:31:06;;;;;;;5.80;2.20;;;14.00;92.30;;;;;;5095015;28;20024;-83
2022/05/30 07:33:33;;;;;;;3.65;2.30;;;14.40;92.10;;;;;;5101077;28;20025;-84
2022/05/30 07:36:00;;;;;;;2.78;2.13;;;14.80;91.90;;;;;;5070016;28;20021;-83
2022/05/30 07:38:26;;;;;;;4.32;2.15;;;15.20;91.50;;;;;;5076373;28;20039;-83
2022/05/30 07:41:03;;;;;;;5.10;2.20;;;15.50;91.00;;;;;;5074070;28;20078;-84
2022/05/30 07:43:30;;;;;;;5.45;2.08;;;15.90;90.80;;;;;;5093328;28;20402;-83
2022/05/30 07:46:01;;;;;;;2.55;1.70;;;16.10;90.10;;;;;;5087097;28;20028;-84
2022/05/30 07:48:27;;;;;;;3.35;1.52;;;16.30;90.00;;;;;;5078278;28;20064;-83
2022/05/30 07:50:57;;;;;;;2.17;1.83;;;16.50;89.60;;;;;;5078050;28;20024;-84
2022/05/30 07:53:24;;;;;;;3.53;1.90;;;16.90;88.80;;;;;;5079957;28;20020;-83
2022/05/30 07:55:49;;;;;;;2.42;1.50;;;17.20;88.00;;;;;;5081216;28;20088;-83
2022/05/30 07:58:15;;;;;;;2.38;1.33;;;17.40;87.00;;;;;;5081115;28;20510;-84
2022/05/30 08:00:40;;;;;;;2.78;1.30;;;17.70;86.60;;;;;;5080255;28;20020;-83
2022/05/30 08:03:06;;;;;;;3.10;1.60;;;18.00;85.70;;;;;;5080839;28;20028;-83
2022/05/30 08:05:32;;;;;;;1.88;1.30;;;18.10;84.00;;;;;;5094235;28;20062;-83
2022/05/30 08:07:58;;;;;;;2.63;1.20;;;18.10;83.40;;;;;;5060957;28;20164;-83
2022/05/30 08:10:24;;;;;;;4.13;1.38;;;18.30;82.90;;;;;;5079162;28;20021;-84
2022/05/30 08:12:49;;;;;;;3.75;1.30;;;18.40;82.00;;;;;;5066979;28;20482;-84
2022/05/30 08:15:16;;;;;;;5.65;2.45;;;18.60;81.00;;;;;;5078746;28;20066;-84
2022/05/30 08:17:42;;;;;;;2.30;1.20;;;18.70;80.30;;;;;;5080111;28;20024;-84
2022/05/30 08:20:14;;;;;;;4.35;1.20;;;18.90;79.70;;;;;;5079006;28;20036;-83
2022/05/30 08:22:39;;;;;;;4.15;1.23;;;19.10;78.10;;;;;;5077093;28;20185;-83
2022/05/30 08:25:08;;;;;;;5.85;1.85;;;19.20;77.40;;;;;;5073162;28;20119;-84
2022/05/30 08:27:34;;;;;;;4.82;2.42;;;18.90;74.80;;;;;;5062541;28;20024;-85
2022/05/30 08:30:00;;;;;;;4.18;1.20;;;18.90;76.00;;;;;;5062650;28;20466;-84
2022/05/30 08:32:37;;;;;;;1.20;1.10;;;19.10;76.50;;;;;;5061649;28;20046;-84
2022/05/30 08:35:05;;;;;;;3.53;1.10;;;19.40;75.60;;;;;;5061869;28;20052;-85
2022/05/30 08:37:33;;;;;;;2.97;1.05;;;19.70;75.20;;;;;;5073102;28;20106;-85
2022/05/30 08:42:45;;;;;;;4.60;1.10;;;20.20;72.60;;;;;;5100190;28;20043;-85
2022/05/30 08:45:16;;;;;;;2.72;1.00;;;20.50;72.60;;;;;;5081250;28;20020;-85
2022/05/30 08:47:57;;;;;;;3.88;1.15;;;20.60;69.40;;;;;;5080975;28;20035;-84
2022/05/30 08:50:31;;;;;;;2.57;1.00;;;20.50;69.50;;;;;;5081803;28;20119;-85
2022/05/30 08:53:35;;;;;;;3.72;1.08;;;20.60;69.30;;;;;;5078308;28;20672;-86
2022/05/30 08:56:34;;;;;;;2.85;0.90;;;20.60;68.10;;;;;;5048826;28;20029;-86
2022/05/30 08:59:26;;;;;;;2.60;0.90;;;20.30;68.40;;;;;;5081435;28;20024;-85
2022/05/30 09:02:20;;;;;;;3.95;0.98;;;20.70;68.90;;;;;;5050142;28;20505;-85
2022/05/30 09:04:47;;;;;;;3.10;0.80;;;21.10;68.00;;;;;;5081128;28;20055;-84
2022/05/30 09:07:16;;;;;;;3.03;1.02;;;21.50;67.70;;;;;;5074050;28;20029;-85
2022/05/30 09:10:04;;;;;;;2.08;0.88;;;22.00;65.40;;;;;;5063739;28;20025;-85
2022/05/30 09:12:52;;;;;;;3.13;0.80;;;22.40;64.80;;;;;;5063636;28;20025;-85
2022/05/30 09:15:24;;;;;;;4.20;1.27;;;22.90;63.20;;;;;;5095924;28;20028;-86
2022/05/30 09:18:15;;;;;;;1.88;0.88;;;23.40;62.80;;;;;;5083548;28;20224;-85
2022/05/30 09:20:41;;;;;;;3.13;1.33;;;23.90;61.60;;;;;;5083138;28;20120;-86
2022/05/30 09:23:07;;;;;;;31.38;24.75;;;24.20;59.80;;;;;;5083193;28;20055;-85
2022/05/30 09:25:56;;;;;;;2.45;1.83;;;24.60;58.60;;;;;;5081482;28;20073;-85
2022/05/30 09:28:24;;;;;;;2.85;1.10;;;25.20;57.10;;;;;;5077149;28;20017;-86
2022/05/30 09:31:35;;;;;;;2.42;0.98;;;25.90;56.20;;;;;;5081221;28;20020;-87
2022/05/30 09:34:33;;;;;;;1.43;0.70;;;26.90;55.00;;;;;;5070631;28;20024;-86
2022/05/30 09:36:59;;;;;;;0.98;0.90;;;27.90;53.50;;;;;;5084464;28;20298;-86
2022/05/30 09:39:24;;;;;;;6.22;0.93;;;28.70;50.50;;;;;;5084690;28;20016;-87
2022/05/30 09:41:59;;;;;;;1.65;1.17;;;29.20;48.50;;;;;;5084377;28;20031;-87
2022/05/30 09:44:42;;;;;;;2.08;0.82;;;29.90;47.10;;;;;;5077137;28;20075;-84
2022/05/30 09:47:18;;;;;;;2.37;0.80;;;30.60;46.30;;;;;;5086313;28;20383;-86
2022/05/30 09:49:46;;;;;;;1.45;0.95;;;31.30;45.20;;;;;;5064186;28;20382;-86
2022/05/30 09:52:33;;;;;;;2.95;0.98;;;31.80;44.40;;;;;;5064760;28;20093;-85
2022/05/30 09:55:01;;;;;;;2.92;1.15;;;32.50;43.50;;;;;;5064857;28;20028;-85
2022/05/30 09:57:41;;;;;;;1.08;0.82;;;33.00;42.40;;;;;;5065645;28;20009;-84
2022/05/30 10:00:32;;;;;;;1.88;0.77;;;33.50;40.60;;;;;;5065889;28;20051;-85
2022/05/30 10:03:11;;;;;;;4.85;0.93;;;33.60;39.50;;;;;;5065871;28;20107;-85
2022/05/30 10:05:38;;;;;;;3.03;0.80;;;33.40;37.50;;;;;;5064148;28;20024;-85
2022/05/30 10:08:19;;;;;;;1.75;0.82;;;33.20;38.00;;;;;;5064451;28;20036;-84
2022/05/30 10:10:51;;;;;;;3.70;1.15;;;33.70;38.20;;;;;;5082762;28;20028;-85
2022/05/30 10:13:34;;;;;;;1.27;0.70;;;34.50;38.60;;;;;;5068484;28;20028;-85
2022/05/30 10:16:01;;;;;;;1.65;0.65;;;35.00;38.30;;;;;;5075828;28;20028;-85
2022/05/30 10:18:32;;;;;;;2.30;1.00;;;35.60;37.90;;;;;;5078173;28;20028;-85
2022/05/30 10:21:03;;;;;;;1.80;0.85;;;36.10;36.20;;;;;;5081645;28;20034;-85
2022/05/30 10:29:50;;;;;;;4.45;0.82;;;36.30;37.20;;;;;;5090933;28;20443;-84
2022/05/30 10:32:35;;;;;;;1.80;0.75;;;36.00;37.20;;;;;;5069838;28;20032;-83
2022/05/30 10:35:20;;;;;;;1.45;0.68;;;35.70;37.60;;;;;;5056289;28;20075;-85
2022/05/30 10:38:02;;;;;;;1.63;0.70;;;35.10;37.60;;;;;;5059449;28;20036;-85
2022/05/30 10:40:34;;;;;;;;;;;32.60;38.40;;;;;;5057554;28;20382;-86
2022/05/30 10:43:04;;;;;;;2.55;0.70;;;30.60;41.20;;;;;;5073240;28;19999;-86
2022/05/30 10:45:55;;;;;;;1.60;0.80;;;29.00;40.80;;;;;;5064900;28;20043;-86
2022/05/30 10:51:00;;;;;;;1.58;0.80;;;26.70;42.10;;;;;;5068877;28;20049;-89
2022/05/30 10:53:43;;;;;;;1.55;0.70;;;25.80;42.10;;;;;;5052548;28;20020;-90
2022/05/30 10:56:18;;;;;;;3.10;0.63;;;25.00;42.50;;;;;;5035149;28;20032;-90
2022/05/30 10:59:04;;;;;;;1.25;0.68;;;24.60;43.30;;;;;;5034883;28;20519;-91
2022/05/30 11:01:47;;;;;;;3.78;1.17;;;24.20;43.60;;;;;;5020718;28;20136;-89
2022/05/30 11:04:16;;;;;;;4.88;0.90;;;23.70;44.00;;;;;;5035662;28;20199;-89
2022/05/30 11:06:47;;;;;;;2.55;0.80;;;23.50;44.50;;;;;;5036726;28;20032;-90
2022/05/30 11:09:26;;;;;;;1.48;0.70;;;23.30;44.60;;;;;;5031490;28;20032;-89
2022/05/30 11:12:20;;;;;;;0.98;0.68;;;22.90;43.80;;;;;;5022260;28;20051;-90
2022/05/30 11:14:51;;;;;;;1.55;0.50;;;22.40;44.90;;;;;;5034053;28;20021;-89
2022/05/30 11:17:19;;;;;;;4.32;0.80;;;22.00;45.10;;;;;;5035879;28;20028;-90
2022/05/30 11:20:07;;;;;;;1.98;0.60;;;21.90;45.40;;;;;;5036283;28;20025;-90
2022/05/30 11:22:41;;;;;;;2.25;0.90;;;21.80;45.80;;;;;;5025571;28;20020;-90
2022/05/30 11:25:12;;;;;;;1.80;0.77;;;21.60;45.70;;;;;;5038185;28;20036;-90
2022/05/30 11:27:39;;;;;;;2.47;0.93;;;21.60;46.30;;;;;;5031441;28;20346;-87
2022/05/30 11:30:14;;;;;;;0.75;0.75;;;21.90;46.70;;;;;;5038811;28;20100;-90
2022/05/30 11:33:10;;;;;;;1.65;0.93;;;22.10;46.60;;;;;;5039789;28;20087;-89
2022/05/30 11:35:36;;;;;;;1.20;0.60;;;22.30;46.80;;;;;;5038254;28;20080;-89
2022/05/30 11:38:23;;;;;;;1.05;0.70;;;22.40;46.50;;;;;;5039284;28;20417;-90
2022/05/30 11:40:53;;;;;;;1.95;0.88;;;22.40;46.20;;;;;;5037981;28;20365;-90
2022/05/30 11:43:39;;;;;;;2.28;0.70;;;22.40;46.00;;;;;;5038420;28;20112;-90
2022/05/30 11:46:13;;;;;;;4.18;2.05;;;22.40;46.00;;;;;;5020356;28;20497;-90
2022/05/30 11:49:17;;;;;;;2.33;1.35;;;22.50;46.30;;;;;;5037610;28;20164;-89
2022/05/30 11:52:03;;;;;;;2.08;0.82;;;22.70;46.10;;;;;;5038898;28;20508;-89
2022/05/30 11:54:56;;;;;;;1.23;0.80;;;22.80;46.10;;;;;;5038029;28;20315;-90
2022/05/30 11:57:33;;;;;;;2.65;0.90;;;22.90;45.50;;;;;;5035963;28;20025;-90
2022/05/30 12:00:13;;;;;;;2.72;0.80;;;22.90;45.60;;;;;;5034451;28;20017;-89
2022/05/30 12:02:48;;;;;;;1.73;0.85;;;22.70;45.40;;;;;;5038142;28;20028;-90
2022/05/30 12:05:25;;;;;;;4.28;0.70;;;22.60;45.40;;;;;;5037867;28;20031;-90
2022/05/30 12:08:03;;;;;;;1.25;0.80;;;22.20;44.90;;;;;;5059588;28;20169;-90
2022/05/30 12:10:43;;;;;;;1.95;0.90;;;21.70;44.60;;;;;;5039792;28;20029;-90
2022/05/30 12:13:08;;;;;;;2.60;1.00;;;21.20;44.80;;;;;;5038253;28;20493;-89
2022/05/30 12:15:45;;;;;;;3.78;0.82;;;20.90;45.20;;;;;;5042121;28;20079;-90
2022/05/30 12:24:18;;;;;;;1.58;0.80;;;20.60;46.20;;;;;;5054107;28;20121;-90
2022/05/30 12:26:53;;;;;;;3.55;1.05;;;20.90;46.70;;;;;;5047460;28;20037;-91
2022/05/30 12:29:37;;;;;;;1.63;0.80;;;21.20;46.50;;;;;;5030750;28;20108;-90
2022/05/30 12:32:12;;;;;;;0.90;0.70;;;21.30;46.60;;;;;;5034394;28;20025;-90
2022/05/30 12:35:10;;;;;;;1.60;0.82;;;21.40;46.50;;;;;;5036065;28;20037;-90
2022/05/30 12:37:45;;;;;;;1.05;0.77;;;21.40;46.20;;;;;;5036468;28;20116;-90
2022/05/30 12:40:11;;;;;;;1.60;0.82;;;21.40;46.10;;;;;;5027419;28;20025;-91
2022/05/30 12:42:42;;;;;;;1.13;0.98;;;21.40;46.30;;;;;;5017255;28;20048;-89
2022/05/30 12:45:37;;;;;;;3.50;1.00;;;21.40;46.50;;;;;;5016835;28;20123;-90
2022/05/30 12:48:14;;;;;;;2.72;1.00;;;21.40;46.50;;;;;;4984646;28;20096;-91
2022/05/30 12:50:51;;;;;;;11.93;7.57;;;21.40;45.70;;;;;;5048923;28;20029;-90
2022/05/30 12:53:21;;;;;;;1.45;1.00;;;21.40;46.30;;;;;;5059919;28;20025;-91
2022/05/30 12:55:53;;;;;;;2.90;1.10;;;21.40;47.00;;;;;;5033994;28;20033;-90
2022/05/30 12:58:34;;;;;;;1.73;0.75;;;21.30;46.00;;;;;;5040176;28;20107;-90
2022/05/30 13:01:21;;;;;;;1.40;0.70;;;21.30;46.60;;;;;;5029130;28;20036;-90
2022/05/30 13:04:07;;;;;;;0.93;0.73;;;21.30;46.70;;;;;;5035339;28;20036;-89
2022/05/30 13:07:05;;;;;;;2.05;0.80;;;21.40;46.20;;;;;;5029747;28;20474;-90
2022/05/30 13:09:40;;;;;;;2.97;0.90;;;21.30;45.90;;;;;;5024466;28;20113;-88
2022/05/30 13:12:15;;;;;;;1.38;0.70;;;21.10;46.30;;;;;;5032628;28;20057;-89
2022/05/30 13:14:43;;;;;;;2.92;1.10;;;21.00;46.50;;;;;;5028728;28;20029;-90
2022/05/30 13:17:19;;;;;;;1.10;0.95;;;20.90;46.50;;;;;;5029471;28;20029;-90
2022/05/30 13:19:49;;;;;;;2.40;1.00;;;20.80;46.50;;;;;;5038495;28;20032;-89
2022/05/30 13:22:19;;;;;;;2.83;1.10;;;20.80;46.90;;;;;;5031704;28;20030;-89
2022/05/30 13:24:44;;;;;;;1.77;0.85;;;20.80;47.00;;;;;;5032410;28;20116;-91
2022/05/30 13:27:11;;;;;;;0.98;0.90;;;20.70;46.60;;;;;;5031408;28;20271;-90
2022/05/30 13:29:40;;;;;;;4.63;0.82;;;20.60;47.20;;;;;;5040308;28;20028;-90
2022/05/30 13:32:11;;;;;;;1.48;0.80;;;20.60;46.70;;;;;;5057003;28;20029;-88
2022/05/30 13:34:45;;;;;;;3.83;0.80;;;20.60;47.10;;;;;;5047036;28;20092;-89